Time;durP1;ratioP1;P1;durP2;ratioP2;P2;SDS_P1;SDS_P2;PMS_P1;PMS_P2;Temp;Humidity;BMP_temperature;BMP_pressure;BME280_temperature;BME280_humidity;BME280_pressure;Samples;Min_cycle;Max_cycle;Signal;HPM_P1;HPM_P2
2024/03/29 00:02:31;;;;;;;2.03;1.00;;;7.60;89.90;;;;;;6147452;23;20373;-76
2024/03/29 00:05:18;;;;;;;5.90;1.83;;;7.60;90.00;;;;;;6192581;23;20355;-77
2024/03/29 00:08:04;;;;;;;2.03;1.07;;;7.70;90.00;;;;;;6211641;23;20424;-77
2024/03/29 00:10:52;;;;;;;2.90;1.60;;;7.70;89.60;;;;;;6187323;23;20420;-78
2024/03/29 00:13:46;;;;;;;2.90;1.00;;;7.70;89.30;;;;;;6186323;23;20461;-78
2024/03/29 00:19:26;;;;;;;4.93;1.13;;;7.90;88.30;;;;;;6230620;23;20467;-79
2024/03/29 00:21:59;;;;;;;2.17;1.07;;;7.90;87.80;;;;;;6218053;23;20373;-77
2024/03/29 00:24:45;;;;;;;1.97;1.00;;;7.90;87.60;;;;;;6218361;23;20460;-76
2024/03/29 00:27:32;;;;;;;3.33;1.33;;;7.90;87.70;;;;;;6166566;23;20432;-77
2024/03/29 00:30:03;;;;;;;2.00;1.03;;;7.80;87.70;;;;;;6215499;23;20361;-78
2024/03/29 00:32:39;;;;;;;3.20;1.00;;;7.80;87.90;;;;;;6125978;23;20467;-77
2024/03/29 00:35:14;;;;;;;3.47;1.03;;;7.70;88.00;;;;;;6023452;23;20393;-78
2024/03/29 00:37:52;;;;;;;5.83;1.13;;;7.80;88.20;;;;;;6215299;23;20433;-77
2024/03/29 00:40:18;;;;;;;3.00;1.10;;;7.80;88.40;;;;;;6192058;23;20362;-76
2024/03/29 00:43:02;;;;;;;6.03;1.10;;;7.80;88.30;;;;;;6214799;23;20373;-76
2024/03/29 00:45:38;;;;;;;3.00;1.00;;;7.90;88.40;;;;;;6217340;23;20349;-76
2024/03/29 00:51:23;;;;;;;1.50;0.90;;;7.90;88.40;;;;;;6257820;23;20443;-75
2024/03/29 00:53:54;;;;;;;3.00;1.20;;;7.90;88.50;;;;;;6244468;23;20411;-76
2024/03/29 00:56:46;;;;;;;2.60;1.10;;;7.90;88.60;;;;;;6192246;23;20402;-75
2024/03/29 00:59:15;;;;;;;1.70;0.90;;;7.90;88.40;;;;;;6191000;23;20404;-77
2024/03/29 01:01:42;;;;;;;3.27;1.10;;;8.00;88.10;;;;;;6101994;23;20398;-76
2024/03/29 01:04:09;;;;;;;2.70;1.00;;;8.10;87.70;;;;;;6100247;23;20363;-76
2024/03/29 01:06:57;;;;;;;2.10;0.90;;;8.20;87.10;;;;;;6124993;23;20423;-75
2024/03/29 01:09:41;;;;;;;1.73;0.80;;;8.20;86.90;;;;;;6126111;23;20391;-76
2024/03/29 01:12:15;;;;;;;2.40;1.10;;;8.30;86.40;;;;;;6124862;23;20451;-76
2024/03/29 01:14:46;;;;;;;3.17;1.50;;;8.40;86.00;;;;;;6074072;23;20417;-78
2024/03/29 01:17:17;;;;;;;2.07;0.87;;;8.50;85.20;;;;;;6096534;23;20396;-76
2024/03/29 01:19:50;;;;;;;1.50;0.87;;;8.50;84.80;;;;;;6097974;23;20387;-76
2024/03/29 01:22:31;;;;;;;1.70;0.70;;;8.60;84.20;;;;;;6062294;23;20383;-76
2024/03/29 01:25:14;;;;;;;2.00;0.83;;;8.60;83.80;;;;;;6040100;23;20461;-76
2024/03/29 01:30:31;;;;;;;2.80;0.90;;;8.70;83.00;;;;;;6259704;22;20439;-77
2024/03/29 01:33:09;;;;;;;1.67;0.90;;;8.80;82.50;;;;;;6221735;23;20415;-75
2024/03/29 01:35:40;;;;;;;1.97;1.07;;;8.80;81.90;;;;;;6247960;22;20403;-75
2024/03/29 01:38:19;;;;;;;2.60;1.00;;;8.80;81.80;;;;;;6220308;23;20424;-77
2024/03/29 01:41:02;;;;;;;4.63;1.10;;;8.80;81.70;;;;;;6169393;23;20392;-76
2024/03/29 01:43:29;;;;;;;3.10;1.10;;;8.90;81.20;;;;;;6219265;23;20376;-75
2024/03/29 01:45:56;;;;;;;2.80;1.63;;;8.90;81.20;;;;;;6220045;22;20376;-76
2024/03/29 01:48:26;;;;;;;2.57;1.70;;;8.90;81.10;;;;;;6243609;23;20372;-75
2024/03/29 01:51:11;;;;;;;4.50;1.33;;;9.00;81.20;;;;;;6219862;23;20360;-76
2024/03/29 01:54:01;;;;;;;2.70;0.80;;;9.00;80.80;;;;;;6220365;23;20351;-77
2024/03/29 01:56:51;;;;;;;3.10;1.00;;;9.00;81.10;;;;;;6160310;23;20473;-76
2024/03/29 01:59:22;;;;;;;4.03;1.40;;;8.90;81.20;;;;;;6134729;23;20430;-76
2024/03/29 02:01:53;;;;;;;3.60;1.20;;;8.90;81.10;;;;;;6161292;23;20366;-76
2024/03/29 02:04:30;;;;;;;2.07;1.00;;;9.00;81.10;;;;;;6209497;23;20366;-76
2024/03/29 02:07:18;;;;;;;2.07;1.07;;;9.00;80.90;;;;;;6208748;23;20370;-75
2024/03/29 02:09:47;;;;;;;1.33;0.83;;;9.00;80.90;;;;;;6135240;23;20382;-76
2024/03/29 02:12:14;;;;;;;5.73;1.53;;;9.00;80.90;;;;;;6158090;23;20445;-77
2024/03/29 02:14:43;;;;;;;3.10;1.00;;;9.00;81.00;;;;;;6136690;23;20988;-77
2024/03/29 02:17:15;;;;;;;1.63;0.90;;;9.00;81.00;;;;;;6184534;23;20382;-76
2024/03/29 02:19:41;;;;;;;2.77;1.83;;;9.10;80.90;;;;;;6208870;23;20354;-76
2024/03/29 02:22:09;;;;;;;6.03;1.73;;;9.10;80.70;;;;;;6160303;23;20366;-77
2024/03/29 02:24:37;;;;;;;3.33;1.33;;;9.10;80.80;;;;;;6183647;23;20151;-75
2024/03/29 02:27:04;;;;;;;2.27;1.23;;;9.10;81.00;;;;;;6180006;23;20412;-76
2024/03/29 02:29:33;;;;;;;2.40;1.10;;;9.10;81.50;;;;;;6192008;23;20415;-75
2024/03/29 02:32:03;;;;;;;2.27;0.90;;;9.10;82.10;;;;;;6217809;23;20424;-76
2024/03/29 02:34:32;;;;;;;1.67;1.03;;;9.10;82.70;;;;;;6270927;23;20391;-77
2024/03/29 02:37:07;;;;;;;2.40;1.10;;;9.00;83.00;;;;;;6224904;23;20390;-76
2024/03/29 02:39:36;;;;;;;3.53;0.83;;;9.00;83.30;;;;;;6195234;23;20367;-75
2024/03/29 02:42:12;;;;;;;2.03;1.00;;;9.00;83.40;;;;;;6201075;23;20371;-75
2024/03/29 02:44:39;;;;;;;3.53;1.13;;;9.00;83.60;;;;;;6220879;23;20386;-75
2024/03/29 02:47:06;;;;;;;3.77;1.20;;;9.00;83.40;;;;;;6221920;23;20392;-75
2024/03/29 02:49:38;;;;;;;2.10;0.90;;;9.00;83.40;;;;;;6221030;23;20384;-75
2024/03/29 02:52:09;;;;;;;2.07;1.10;;;9.00;83.40;;;;;;6172947;23;20408;-78
2024/03/29 02:54:51;;;;;;;3.67;1.23;;;8.90;83.30;;;;;;6162036;23;20397;-75
2024/03/29 02:57:18;;;;;;;3.13;1.23;;;8.90;83.40;;;;;;6162632;23;20390;-76
2024/03/29 02:59:50;;;;;;;2.83;0.80;;;8.90;83.50;;;;;;6212149;23;20380;-76
2024/03/29 03:02:21;;;;;;;2.70;0.90;;;8.90;83.50;;;;;;6188260;23;20358;-76
2024/03/29 03:05:09;;;;;;;1.00;0.70;;;8.90;83.70;;;;;;6187073;23;20366;-75
2024/03/29 03:10:59;;;;;;;4.80;1.03;;;8.80;84.00;;;;;;6197916;23;20374;-76
2024/03/29 03:13:31;;;;;;;2.50;0.90;;;8.80;83.80;;;;;;6185739;23;20382;-76
2024/03/29 03:15:58;;;;;;;1.50;0.83;;;8.90;83.50;;;;;;6186088;23;20406;-78
2024/03/29 03:18:35;;;;;;;2.20;1.00;;;8.90;83.00;;;;;;6122672;23;20377;-77
2024/03/29 03:21:08;;;;;;;2.70;0.80;;;8.90;82.90;;;;;;6120723;23;20377;-74
2024/03/29 03:23:55;;;;;;;3.00;1.23;;;9.00;82.90;;;;;;6101938;23;20392;-76
2024/03/29 03:26:22;;;;;;;2.30;0.90;;;8.90;82.90;;;;;;6147522;23;20389;-76
2024/03/29 03:29:07;;;;;;;3.10;1.10;;;8.90;83.10;;;;;;6147618;23;20403;-76
2024/03/29 03:31:38;;;;;;;5.70;2.30;;;8.90;83.20;;;;;;6113691;23;20426;-75
2024/03/29 03:34:05;;;;;;;4.03;1.07;;;8.90;83.40;;;;;;6106896;23;20382;-77
2024/03/29 03:36:32;;;;;;;3.40;1.30;;;8.90;83.00;;;;;;6108490;23;20390;-76
2024/03/29 03:39:02;;;;;;;2.80;1.00;;;8.90;82.70;;;;;;6152683;23;20426;-76
2024/03/29 03:41:28;;;;;;;1.50;0.90;;;8.90;82.70;;;;;;6176442;23;20394;-76
2024/03/29 03:43:54;;;;;;;2.60;0.97;;;8.90;82.40;;;;;;6154348;23;20371;-75
2024/03/29 03:46:26;;;;;;;2.43;1.00;;;8.90;82.50;;;;;;6155093;23;20174;-76
2024/03/29 03:48:52;;;;;;;2.00;0.83;;;8.90;82.50;;;;;;6177475;23;20230;-75
2024/03/29 03:51:18;;;;;;;2.70;1.10;;;8.90;82.80;;;;;;6224783;23;20438;-75
2024/03/29 03:53:44;;;;;;;3.83;1.00;;;8.80;82.90;;;;;;6223703;23;20241;-77
2024/03/29 03:56:09;;;;;;;1.87;1.30;;;8.80;83.00;;;;;;6222608;23;20550;-77
2024/03/29 03:58:35;;;;;;;4.70;1.30;;;8.80;83.10;;;;;;6222202;23;20407;-77
2024/03/29 04:01:04;;;;;;;3.07;0.93;;;8.90;82.90;;;;;;6223967;23;20160;-77
2024/03/29 04:03:30;;;;;;;5.17;1.20;;;8.90;82.70;;;;;;6223542;23;20435;-76
2024/03/29 04:05:55;;;;;;;2.07;1.20;;;8.90;82.70;;;;;;6249822;22;21419;-76
2024/03/29 04:08:21;;;;;;;4.23;1.10;;;8.90;82.70;;;;;;6249429;23;20133;-76
2024/03/29 04:10:46;;;;;;;2.10;0.87;;;8.90;82.60;;;;;;6224587;23;20187;-78
2024/03/29 04:13:12;;;;;;;3.47;1.00;;;8.90;82.50;;;;;;6223516;23;20149;-75
2024/03/29 04:15:38;;;;;;;4.13;1.10;;;8.90;82.70;;;;;;6247221;22;20144;-76
2024/03/29 04:18:03;;;;;;;3.63;1.10;;;8.90;83.00;;;;;;6248630;23;20204;-76
2024/03/29 04:20:29;;;;;;;3.67;0.90;;;8.80;83.00;;;;;;6247999;23;20157;-76
2024/03/29 04:22:54;;;;;;;2.83;1.30;;;8.80;83.20;;;;;;6248249;23;20133;-76
2024/03/29 04:25:20;;;;;;;5.33;1.17;;;8.80;83.50;;;;;;6248534;23;20173;-76
2024/03/29 04:27:45;;;;;;;2.07;1.00;;;8.80;84.10;;;;;;6220578;23;20237;-74
2024/03/29 04:30:11;;;;;;;2.20;0.97;;;8.80;85.10;;;;;;6247946;23;20187;-75
2024/03/29 04:32:37;;;;;;;2.40;1.00;;;8.70;85.90;;;;;;6247729;23;20240;-75
2024/03/29 04:35:03;;;;;;;1.80;1.00;;;8.60;87.00;;;;;;6247290;23;20180;-75
2024/03/29 04:37:29;;;;;;;1.93;1.00;;;8.60;87.60;;;;;;6248002;22;20161;-76
2024/03/29 04:39:54;;;;;;;2.00;0.70;;;8.50;88.30;;;;;;6248313;23;20860;-75
2024/03/29 04:42:20;;;;;;;2.07;1.00;;;8.50;88.90;;;;;;6247703;23;20212;-75
2024/03/29 04:44:46;;;;;;;1.50;0.90;;;8.50;89.70;;;;;;6247855;23;20172;-75
2024/03/29 04:47:11;;;;;;;4.00;1.10;;;8.50;90.10;;;;;;6248400;22;20211;-76
2024/03/29 04:49:37;;;;;;;5.50;1.30;;;8.50;90.20;;;;;;6221270;23;20406;-75
2024/03/29 04:52:04;;;;;;;3.53;1.17;;;8.50;90.30;;;;;;6248656;23;20161;-76
2024/03/29 04:54:30;;;;;;;1.77;0.80;;;8.60;90.50;;;;;;6247631;23;20137;-75
2024/03/29 04:56:56;;;;;;;2.20;0.83;;;8.50;90.60;;;;;;6248421;22;20372;-75
2024/03/29 04:59:21;;;;;;;3.00;0.90;;;8.50;90.70;;;;;;6221982;23;20363;-74
2024/03/29 05:01:50;;;;;;;3.77;1.13;;;8.50;91.00;;;;;;6261280;23;20228;-75
2024/03/29 05:04:18;;;;;;;3.00;1.73;;;8.40;91.30;;;;;;6238659;23;20153;-74
2024/03/29 05:06:47;;;;;;;2.80;1.10;;;8.40;91.70;;;;;;6263864;22;20392;-75
2024/03/29 05:09:14;;;;;;;2.23;1.10;;;8.40;91.70;;;;;;6237409;23;20407;-76
2024/03/29 05:11:42;;;;;;;2.67;1.00;;;8.40;91.80;;;;;;6265123;23;20404;-75
2024/03/29 05:14:07;;;;;;;2.30;0.90;;;8.40;92.30;;;;;;6220960;23;20384;-75
2024/03/29 05:16:33;;;;;;;1.90;0.87;;;8.40;92.20;;;;;;6219896;23;20410;-75
2024/03/29 05:18:59;;;;;;;3.37;0.90;;;8.40;92.40;;;;;;6218131;23;20165;-75
2024/03/29 05:21:27;;;;;;;4.10;1.00;;;8.40;92.60;;;;;;6236858;23;20188;-75
2024/03/29 05:23:53;;;;;;;3.00;1.10;;;8.40;92.80;;;;;;6211778;23;20134;-75
2024/03/29 05:26:20;;;;;;;4.37;1.37;;;8.50;92.50;;;;;;6210738;23;20396;-74
2024/03/29 05:28:48;;;;;;;2.50;1.10;;;8.50;92.70;;;;;;6212546;23;20380;-75
2024/03/29 05:31:14;;;;;;;2.03;1.23;;;8.50;92.60;;;;;;6237467;23;20503;-75
2024/03/29 05:33:41;;;;;;;2.77;1.30;;;8.50;92.60;;;;;;6241956;23;20379;-74
2024/03/29 05:36:10;;;;;;;3.03;1.10;;;8.60;92.70;;;;;;6177406;23;20842;-76
2024/03/29 05:38:37;;;;;;;2.00;0.97;;;8.60;92.60;;;;;;6154318;23;20450;-75
2024/03/29 05:41:02;;;;;;;2.30;1.30;;;8.60;92.60;;;;;;6203109;23;20377;-76
2024/03/29 05:43:29;;;;;;;4.90;1.17;;;8.70;92.50;;;;;;6181087;23;20377;-75
2024/03/29 05:45:54;;;;;;;5.10;1.37;;;8.80;92.70;;;;;;6155971;23;20426;-75
2024/03/29 05:48:20;;;;;;;5.17;1.80;;;8.80;92.80;;;;;;6179468;23;20177;-76
2024/03/29 05:50:46;;;;;;;1.70;0.90;;;8.80;93.00;;;;;;6128866;23;20536;-75
2024/03/29 05:53:12;;;;;;;3.40;1.30;;;8.80;93.40;;;;;;6178374;23;20370;-76
2024/03/29 05:55:38;;;;;;;2.70;1.57;;;8.80;94.00;;;;;;6154700;23;20162;-76
2024/03/29 05:58:06;;;;;;;2.20;1.03;;;8.80;94.30;;;;;;6149550;23;20390;-74
2024/03/29 06:00:35;;;;;;;1.87;1.10;;;8.80;95.00;;;;;;6125678;23;20359;-76
2024/03/29 06:03:05;;;;;;;1.73;0.93;;;8.80;95.50;;;;;;6125648;23;20183;-75
2024/03/29 06:05:32;;;;;;;3.17;0.90;;;8.70;95.80;;;;;;6151244;23;20426;-76
2024/03/29 06:07:58;;;;;;;3.63;1.67;;;8.70;96.50;;;;;;6203586;23;20404;-75
2024/03/29 06:10:24;;;;;;;3.30;1.13;;;8.70;97.30;;;;;;6211212;23;20416;-75
2024/03/29 06:12:50;;;;;;;3.87;1.43;;;8.80;97.70;;;;;;6211904;23;20193;-76
2024/03/29 06:18:04;;;;;;;1.93;1.03;;;8.90;98.30;;;;;;6162158;23;20372;-74
2024/03/29 06:20:31;;;;;;;2.83;1.43;;;8.90;98.60;;;;;;6211502;23;20353;-76
2024/03/29 06:22:57;;;;;;;2.53;0.97;;;8.90;99.50;;;;;;6188228;23;20374;-74
2024/03/29 06:25:23;;;;;;;3.60;1.20;;;9.00;99.90;;;;;;6166843;23;20376;-76
2024/03/29 06:27:50;;;;;;;2.97;1.10;;;9.00;99.90;;;;;;6189799;23;20377;-76
2024/03/29 06:30:17;;;;;;;2.50;1.10;;;9.00;99.90;;;;;;6187731;23;20209;-75
2024/03/29 06:32:50;;;;;;;3.00;1.50;;;9.10;99.90;;;;;;6212641;23;20440;-75
2024/03/29 06:35:16;;;;;;;3.47;1.40;;;9.10;99.90;;;;;;6189111;23;20440;-77
2024/03/29 06:37:42;;;;;;;2.10;1.10;;;9.20;99.90;;;;;;6188451;23;20423;-76
2024/03/29 06:40:27;;;;;;;3.43;0.97;;;9.20;99.90;;;;;;6128176;23;20379;-75
2024/03/29 06:42:58;;;;;;;2.37;1.10;;;9.30;99.90;;;;;;6176242;23;20418;-77
2024/03/29 06:45:29;;;;;;;3.07;1.37;;;9.30;99.90;;;;;;6130571;23;20375;-75
2024/03/29 06:47:56;;;;;;;1.70;1.07;;;9.40;99.90;;;;;;6155266;23;20369;-76
2024/03/29 06:50:23;;;;;;;2.00;1.17;;;9.40;99.90;;;;;;6179008;23;20375;-77
2024/03/29 06:52:50;;;;;;;1.60;1.07;;;9.50;99.90;;;;;;6148062;23;20443;-77
2024/03/29 06:55:16;;;;;;;2.17;0.90;;;9.50;99.90;;;;;;6148832;23;20392;-75
2024/03/29 06:57:44;;;;;;;1.90;1.00;;;9.60;99.90;;;;;;6122796;23;20387;-76
2024/03/29 07:00:13;;;;;;;5.83;1.50;;;9.80;99.90;;;;;;6102079;23;20192;-75
2024/03/29 07:02:39;;;;;;;3.87;1.47;;;9.90;99.90;;;;;;6125291;23;20359;-76
2024/03/29 07:05:07;;;;;;;2.00;1.20;;;10.10;99.90;;;;;;6097027;23;20392;-77
2024/03/29 07:07:34;;;;;;;3.57;1.20;;;10.10;99.90;;;;;;6096246;23;20432;-75
2024/03/29 07:10:01;;;;;;;1.93;1.10;;;10.20;99.90;;;;;;6049724;23;20389;-77
2024/03/29 07:12:29;;;;;;;1.53;0.90;;;10.30;99.90;;;;;;6120473;23;20397;-76
2024/03/29 07:14:55;;;;;;;2.10;1.23;;;10.30;99.90;;;;;;6035529;23;20368;-76
2024/03/29 07:17:22;;;;;;;2.13;1.00;;;10.40;99.90;;;;;;6060897;23;20390;-77
2024/03/29 07:19:48;;;;;;;1.33;0.80;;;10.40;99.90;;;;;;6067546;23;20365;-76
2024/03/29 07:22:16;;;;;;;1.70;0.90;;;10.50;99.90;;;;;;6069805;23;20409;-76
2024/03/29 07:24:42;;;;;;;2.60;1.33;;;10.60;99.90;;;;;;6068641;23;20397;-75
2024/03/29 07:27:12;;;;;;;1.83;0.80;;;10.70;99.90;;;;;;6068054;23;20383;-76
2024/03/29 07:29:38;;;;;;;2.93;0.97;;;10.90;99.90;;;;;;6083189;23;20505;-76
2024/03/29 07:32:05;;;;;;;2.50;1.07;;;11.00;99.90;;;;;;6152092;23;20423;-76
2024/03/29 07:34:32;;;;;;;1.50;0.83;;;11.20;99.90;;;;;;6102813;23;20383;-75
2024/03/29 07:37:00;;;;;;;2.37;1.10;;;11.30;99.90;;;;;;6121331;23;20392;-78
2024/03/29 07:39:43;;;;;;;1.90;1.00;;;11.40;99.90;;;;;;6075955;23;20382;-77
2024/03/29 07:42:12;;;;;;;1.67;1.03;;;11.40;99.90;;;;;;6050585;23;20398;-76
2024/03/29 07:44:39;;;;;;;1.63;1.00;;;11.50;99.90;;;;;;6007144;23;20398;-77
2024/03/29 07:47:07;;;;;;;2.50;0.90;;;11.60;99.90;;;;;;5988397;23;20428;-76
2024/03/29 07:49:35;;;;;;;1.40;0.90;;;11.60;99.90;;;;;;5989376;23;20370;-75
2024/03/29 07:52:08;;;;;;;2.77;1.53;;;11.60;99.90;;;;;;6012517;23;20435;-77
2024/03/29 07:54:47;;;;;;;1.20;0.80;;;11.80;99.90;;;;;;5991097;23;20382;-76
2024/03/29 07:57:31;;;;;;;2.47;0.80;;;11.90;99.90;;;;;;6035665;23;20387;-78
2024/03/29 08:00:04;;;;;;;1.97;0.70;;;12.00;99.90;;;;;;5991406;23;20418;-78
2024/03/29 08:02:33;;;;;;;1.30;0.60;;;12.10;99.90;;;;;;6037732;23;20398;-77
2024/03/29 08:05:18;;;;;;;1.70;0.80;;;12.20;99.90;;;;;;6017384;23;20375;-78
2024/03/29 08:08:14;;;;;;;2.00;0.90;;;12.40;99.90;;;;;;5987578;23;20470;-78
2024/03/29 08:11:03;;;;;;;1.30;0.77;;;12.40;99.90;;;;;;6025200;23;20401;-78
2024/03/29 08:13:42;;;;;;;1.37;0.70;;;12.50;99.90;;;;;;6030137;23;20443;-77
2024/03/29 08:16:23;;;;;;;2.13;0.67;;;12.70;99.90;;;;;;6040267;23;20406;-77
2024/03/29 08:18:53;;;;;;;1.00;0.60;;;12.80;99.90;;;;;;6041638;23;20398;-76
2024/03/29 08:21:27;;;;;;;3.53;0.90;;;13.00;99.90;;;;;;6057778;23;20439;-78
2024/03/29 08:23:54;;;;;;;2.03;0.80;;;13.10;99.90;;;;;;6074104;23;20412;-77
2024/03/29 08:26:22;;;;;;;1.43;0.80;;;13.20;99.90;;;;;;6075206;23;20406;-75
2024/03/29 08:28:57;;;;;;;7.73;0.70;;;13.30;99.90;;;;;;6158305;23;20383;-76
2024/03/29 08:31:27;;;;;;;1.10;0.70;;;13.40;99.90;;;;;;6158810;23;20418;-77
2024/03/29 08:33:58;;;;;;;3.43;0.80;;;13.40;99.90;;;;;;6133967;23;20399;-76
2024/03/29 08:36:31;;;;;;;1.10;0.73;;;13.50;99.80;;;;;;6158441;23;20410;-76
2024/03/29 08:39:43;;;;;;;1.10;0.80;;;13.60;99.60;;;;;;6157669;23;20394;-77
2024/03/29 08:42:52;;;;;;;1.47;0.90;;;13.70;99.40;;;;;;6166962;23;20464;-77
2024/03/29 08:51:21;;;;;;;5.10;1.00;;;14.10;98.50;;;;;;6219050;23;20459;-75
2024/03/29 08:54:08;;;;;;;1.77;0.87;;;14.10;97.30;;;;;;6197141;22;20416;-76
2024/03/29 08:56:40;;;;;;;2.17;1.00;;;14.10;97.40;;;;;;6189359;23;20416;-76
2024/03/29 09:36:19;;;;;;;1.60;1.00;;;15.70;91.50;;;;;;6244245;23;20364;-79
2024/03/29 09:56:00;;;;;;;2.40;1.30;;;16.40;86.20;;;;;;6171654;23;20423;-75
2024/03/29 09:59:12;;;;;;;1.33;0.83;;;16.30;85.70;;;;;;6164372;23;20382;-79
2024/03/29 23:10:49;;;;;;;3.97;2.30;;;9.90;99.90;;;;;;6231681;22;20453;-77
2024/03/29 23:14:19;;;;;;;4.20;2.67;;;9.90;99.90;;;;;;6153800;23;20395;-80
2024/03/29 23:59:42;;;;;;;4.63;3.80;;;10.00;99.90;;;;;;6198157;22;20461;-77
